sensor_id;sensor_type;location;lat;lon;timestamp;temperature;humidity
61201;DHT22;47065;52.898;6.992;2023-08-31T00:01:31;11.50;99.90
61201;DHT22;47065;52.898;6.992;2023-08-31T00:03:58;11.50;99.90
61201;DHT22;47065;52.898;6.992;2023-08-31T00:06:25;11.40;99.90
61201;DHT22;47065;52.898;6.992;2023-08-31T00:08:50;11.40;99.90
61201;DHT22;47065;52.898;6.992;2023-08-31T00:11:16;11.30;99.90
61201;DHT22;47065;52.898;6.992;2023-08-31T00:13:42;11.30;99.90
61201;DHT22;47065;52.898;6.992;2023-08-31T00:16:08;11.20;99.90
61201;DHT22;47065;52.898;6.992;2023-08-31T00:18:35;11.20;99.90
61201;DHT22;47065;52.898;6.992;2023-08-31T00:21:02;11.10;99.90
61201;DHT22;47065;52.898;6.992;2023-08-31T00:23:28;11.10;99.90
61201;DHT22;47065;52.898;6.992;2023-08-31T00:25:54;11.10;99.90
61201;DHT22;47065;52.898;6.992;2023-08-31T00:28:22;11.10;99.90
61201;DHT22;47065;52.898;6.992;2023-08-31T00:30:48;11.00;99.90
61201;DHT22;47065;52.898;6.992;2023-08-31T00:33:14;11.00;99.90
61201;DHT22;47065;52.898;6.992;2023-08-31T00:35:41;11.00;99.90
61201;DHT22;47065;52.898;6.992;2023-08-31T00:38:11;11.00;99.90
61201;DHT22;47065;52.898;6.992;2023-08-31T00:40:41;11.00;99.90
61201;DHT22;47065;52.898;6.992;2023-08-31T00:43:11;11.00;99.90
61201;DHT22;47065;52.898;6.992;2023-08-31T00:45:37;10.90;99.90
61201;DHT22;47065;52.898;6.992;2023-08-31T00:48:05;10.90;99.90
61201;DHT22;47065;52.898;6.992;2023-08-31T00:50:31;10.90;99.90
61201;DHT22;47065;52.898;6.992;2023-08-31T00:52:56;10.90;99.90
61201;DHT22;47065;52.898;6.992;2023-08-31T00:55:23;10.80;99.90
61201;DHT22;47065;52.898;6.992;2023-08-31T00:57:49;10.80;99.90
61201;DHT22;47065;52.898;6.992;2023-08-31T01:00:15;10.70;99.90
61201;DHT22;47065;52.898;6.992;2023-08-31T01:02:50;10.70;99.90
61201;DHT22;47065;52.898;6.992;2023-08-31T01:11:19;10.70;99.90
61201;DHT22;47065;52.898;6.992;2023-08-31T01:13:51;10.80;99.90
61201;DHT22;47065;52.898;6.992;2023-08-31T01:16:18;10.80;99.90
61201;DHT22;47065;52.898;6.992;2023-08-31T01:18:46;10.80;99.90
61201;DHT22;47065;52.898;6.992;2023-08-31T01:21:25;10.80;99.90
61201;DHT22;47065;52.898;6.992;2023-08-31T01:23:56;10.90;99.90
61201;DHT22;47065;52.898;6.992;2023-08-31T01:26:24;10.90;99.90
61201;DHT22;47065;52.898;6.992;2023-08-31T01:28:51;10.90;99.90
61201;DHT22;47065;52.898;6.992;2023-08-31T01:31:17;10.90;99.90
61201;DHT22;47065;52.898;6.992;2023-08-31T01:33:43;10.90;99.90
61201;DHT22;47065;52.898;6.992;2023-08-31T01:38:50;10.90;99.90
61201;DHT22;47065;52.898;6.992;2023-08-31T01:41:17;10.90;99.90
61201;DHT22;47065;52.898;6.992;2023-08-31T01:43:45;10.90;99.90
61201;DHT22;47065;52.898;6.992;2023-08-31T01:46:12;10.80;99.90
61201;DHT22;47065;52.898;6.992;2023-08-31T01:48:41;10.90;99.90
61201;DHT22;47065;52.898;6.992;2023-08-31T01:51:08;10.80;99.90
61201;DHT22;47065;52.898;6.992;2023-08-31T01:53:34;10.80;99.90
61201;DHT22;47065;52.898;6.992;2023-08-31T01:56:00;10.80;99.90
61201;DHT22;47065;52.898;6.992;2023-08-31T01:58:26;10.70;99.90
61201;DHT22;47065;52.898;6.992;2023-08-31T02:00:51;10.70;99.90
61201;DHT22;47065;52.898;6.992;2023-08-31T02:03:17;10.60;99.90
61201;DHT22;47065;52.898;6.992;2023-08-31T02:05:43;10.60;99.90
61201;DHT22;47065;52.898;6.992;2023-08-31T02:08:08;10.60;99.90
61201;DHT22;47065;52.898;6.992;2023-08-31T02:10:34;10.60;99.90
61201;DHT22;47065;52.898;6.992;2023-08-31T02:12:59;10.50;99.90
61201;DHT22;47065;52.898;6.992;2023-08-31T02:15:25;10.50;99.90
61201;DHT22;47065;52.898;6.992;2023-08-31T02:17:52;10.50;99.90
61201;DHT22;47065;52.898;6.992;2023-08-31T02:20:18;10.50;99.90
61201;DHT22;47065;52.898;6.992;2023-08-31T02:22:45;10.50;99.90
61201;DHT22;47065;52.898;6.992;2023-08-31T02:25:11;10.50;99.90
61201;DHT22;47065;52.898;6.992;2023-08-31T02:27:38;10.50;99.90
61201;DHT22;47065;52.898;6.992;2023-08-31T02:30:04;10.40;99.90
61201;DHT22;47065;52.898;6.992;2023-08-31T02:32:30;10.40;99.90
61201;DHT22;47065;52.898;6.992;2023-08-31T02:34:56;10.40;99.90
61201;DHT22;47065;52.898;6.992;2023-08-31T02:37:21;10.40;99.90
61201;DHT22;47065;52.898;6.992;2023-08-31T02:39:47;10.40;99.90
61201;DHT22;47065;52.898;6.992;2023-08-31T02:42:14;10.40;99.90
61201;DHT22;47065;52.898;6.992;2023-08-31T02:44:39;10.40;99.90
61201;DHT22;47065;52.898;6.992;2023-08-31T02:47:05;10.40;99.90
61201;DHT22;47065;52.898;6.992;2023-08-31T02:49:31;10.40;99.90
61201;DHT22;47065;52.898;6.992;2023-08-31T02:51:56;10.30;99.90
61201;DHT22;47065;52.898;6.992;2023-08-31T02:54:22;10.40;99.90
61201;DHT22;47065;52.898;6.992;2023-08-31T02:56:47;10.30;99.90
61201;DHT22;47065;52.898;6.992;2023-08-31T02:59:13;10.30;99.90
61201;DHT22;47065;52.898;6.992;2023-08-31T03:01:39;10.40;99.90
61201;DHT22;47065;52.898;6.992;2023-08-31T03:04:05;10.30;99.90
61201;DHT22;47065;52.898;6.992;2023-08-31T03:06:32;10.40;99.90
61201;DHT22;47065;52.898;6.992;2023-08-31T03:08:59;10.40;99.90
61201;DHT22;47065;52.898;6.992;2023-08-31T03:11:25;10.40;99.90
61201;DHT22;47065;52.898;6.992;2023-08-31T03:13:50;10.40;99.90
61201;DHT22;47065;52.898;6.992;2023-08-31T03:16:16;10.50;99.90
61201;DHT22;47065;52.898;6.992;2023-08-31T03:18:42;10.50;99.90
61201;DHT22;47065;52.898;6.992;2023-08-31T03:21:07;10.50;99.90
61201;DHT22;47065;52.898;6.992;2023-08-31T03:23:34;10.50;99.90
61201;DHT22;47065;52.898;6.992;2023-08-31T03:26:06;10.60;99.90
61201;DHT22;47065;52.898;6.992;2023-08-31T03:28:31;10.60;99.90
61201;DHT22;47065;52.898;6.992;2023-08-31T03:30:57;10.60;99.90
61201;DHT22;47065;52.898;6.992;2023-08-31T03:33:22;10.70;99.90
61201;DHT22;47065;52.898;6.992;2023-08-31T03:35:48;10.70;99.90
61201;DHT22;47065;52.898;6.992;2023-08-31T03:38:14;10.70;99.90
61201;DHT22;47065;52.898;6.992;2023-08-31T03:40:39;10.70;99.90
61201;DHT22;47065;52.898;6.992;2023-08-31T03:43:05;10.70;99.90
61201;DHT22;47065;52.898;6.992;2023-08-31T03:45:31;10.70;99.90
61201;DHT22;47065;52.898;6.992;2023-08-31T03:47:56;10.70;99.90
61201;DHT22;47065;52.898;6.992;2023-08-31T03:50:22;10.70;99.90
61201;DHT22;47065;52.898;6.992;2023-08-31T03:52:47;10.70;99.90
61201;DHT22;47065;52.898;6.992;2023-08-31T03:55:13;10.70;99.90
61201;DHT22;47065;52.898;6.992;2023-08-31T03:57:39;10.70;99.90
61201;DHT22;47065;52.898;6.992;2023-08-31T04:00:05;10.70;99.90
61201;DHT22;47065;52.898;6.992;2023-08-31T04:02:34;10.70;99.90
61201;DHT22;47065;52.898;6.992;2023-08-31T04:05:00;10.70;99.90
61201;DHT22;47065;52.898;6.992;2023-08-31T04:07:26;10.70;99.90
61201;DHT22;47065;52.898;6.992;2023-08-31T04:09:52;10.70;99.90
61201;DHT22;47065;52.898;6.992;2023-08-31T04:12:17;10.70;99.90
61201;DHT22;47065;52.898;6.992;2023-08-31T04:14:44;10.70;99.90
61201;DHT22;47065;52.898;6.992;2023-08-31T04:17:09;10.70;99.90
61201;DHT22;47065;52.898;6.992;2023-08-31T04:19:35;10.70;99.90
61201;DHT22;47065;52.898;6.992;2023-08-31T04:22:02;10.80;99.90
61201;DHT22;47065;52.898;6.992;2023-08-31T04:24:30;10.80;99.90
61201;DHT22;47065;52.898;6.992;2023-08-31T04:26:55;10.80;99.90
61201;DHT22;47065;52.898;6.992;2023-08-31T04:29:21;10.80;99.90
61201;DHT22;47065;52.898;6.992;2023-08-31T04:31:46;10.80;99.90
61201;DHT22;47065;52.898;6.992;2023-08-31T04:34:12;10.80;99.90
61201;DHT22;47065;52.898;6.992;2023-08-31T04:36:38;10.80;99.90
61201;DHT22;47065;52.898;6.992;2023-08-31T04:39:03;10.80;99.90
61201;DHT22;47065;52.898;6.992;2023-08-31T04:41:30;10.80;99.90
61201;DHT22;47065;52.898;6.992;2023-08-31T04:43:56;10.80;99.90
61201;DHT22;47065;52.898;6.992;2023-08-31T04:46:21;10.80;99.90
61201;DHT22;47065;52.898;6.992;2023-08-31T04:48:47;10.80;99.90
61201;DHT22;47065;52.898;6.992;2023-08-31T04:51:31;10.80;99.90
61201;DHT22;47065;52.898;6.992;2023-08-31T04:54:00;10.80;99.90
61201;DHT22;47065;52.898;6.992;2023-08-31T04:56:31;10.80;99.90
61201;DHT22;47065;52.898;6.992;2023-08-31T04:58:58;10.90;99.90
61201;DHT22;47065;52.898;6.992;2023-08-31T05:01:23;10.90;99.90
61201;DHT22;47065;52.898;6.992;2023-08-31T05:03:49;11.00;99.90
61201;DHT22;47065;52.898;6.992;2023-08-31T05:06:15;11.00;99.90
61201;DHT22;47065;52.898;6.992;2023-08-31T05:08:40;11.00;99.90
61201;DHT22;47065;52.898;6.992;2023-08-31T05:11:06;11.00;99.90
61201;DHT22;47065;52.898;6.992;2023-08-31T05:13:31;11.10;99.90
61201;DHT22;47065;52.898;6.992;2023-08-31T05:15:57;11.10;99.90
61201;DHT22;47065;52.898;6.992;2023-08-31T05:18:23;11.00;99.90
61201;DHT22;47065;52.898;6.992;2023-08-31T05:20:48;11.10;99.90
61201;DHT22;47065;52.898;6.992;2023-08-31T05:23:14;11.20;99.90
61201;DHT22;47065;52.898;6.992;2023-08-31T05:25:44;11.20;99.90
61201;DHT22;47065;52.898;6.992;2023-08-31T05:28:10;11.20;99.90
61201;DHT22;47065;52.898;6.992;2023-08-31T05:30:35;11.20;99.90
61201;DHT22;47065;52.898;6.992;2023-08-31T05:33:01;11.20;99.90
61201;DHT22;47065;52.898;6.992;2023-08-31T05:35:27;11.20;99.90
61201;DHT22;47065;52.898;6.992;2023-08-31T05:37:52;11.20;99.90
61201;DHT22;47065;52.898;6.992;2023-08-31T05:40:18;11.20;99.90
61201;DHT22;47065;52.898;6.992;2023-08-31T05:42:44;11.10;99.90
61201;DHT22;47065;52.898;6.992;2023-08-31T05:45:10;11.20;99.90
61201;DHT22;47065;52.898;6.992;2023-08-31T05:47:36;11.20;99.90
61201;DHT22;47065;52.898;6.992;2023-08-31T05:50:02;11.20;99.90
61201;DHT22;47065;52.898;6.992;2023-08-31T05:52:28;11.20;99.90
61201;DHT22;47065;52.898;6.992;2023-08-31T05:54:54;11.20;99.90
61201;DHT22;47065;52.898;6.992;2023-08-31T05:57:19;11.30;99.90
61201;DHT22;47065;52.898;6.992;2023-08-31T05:59:47;11.30;99.90
61201;DHT22;47065;52.898;6.992;2023-08-31T06:02:13;11.30;99.90
61201;DHT22;47065;52.898;6.992;2023-08-31T06:04:38;11.40;99.90
61201;DHT22;47065;52.898;6.992;2023-08-31T06:07:04;11.40;99.90
61201;DHT22;47065;52.898;6.992;2023-08-31T06:09:30;11.50;99.90
61201;DHT22;47065;52.898;6.992;2023-08-31T06:11:55;11.60;99.90
61201;DHT22;47065;52.898;6.992;2023-08-31T06:14:21;11.60;99.90
61201;DHT22;47065;52.898;6.992;2023-08-31T06:16:46;11.60;99.90
61201;DHT22;47065;52.898;6.992;2023-08-31T06:19:12;11.60;99.90
61201;DHT22;47065;52.898;6.992;2023-08-31T06:21:41;11.70;99.90
61201;DHT22;47065;52.898;6.992;2023-08-31T06:24:07;11.70;99.90
61201;DHT22;47065;52.898;6.992;2023-08-31T06:26:35;11.80;99.90
61201;DHT22;47065;52.898;6.992;2023-08-31T06:29:01;11.90;99.90
61201;DHT22;47065;52.898;6.992;2023-08-31T06:31:29;11.90;99.90
61201;DHT22;47065;52.898;6.992;2023-08-31T06:33:54;12.00;99.90
61201;DHT22;47065;52.898;6.992;2023-08-31T06:36:20;12.10;99.90
61201;DHT22;47065;52.898;6.992;2023-08-31T06:38:46;12.10;99.90
61201;DHT22;47065;52.898;6.992;2023-08-31T06:41:12;12.20;99.90
61201;DHT22;47065;52.898;6.992;2023-08-31T06:43:37;12.30;99.90
61201;DHT22;47065;52.898;6.992;2023-08-31T06:46:03;12.40;99.90
61201;DHT22;47065;52.898;6.992;2023-08-31T06:48:28;12.40;99.90
61201;DHT22;47065;52.898;6.992;2023-08-31T06:50:54;12.50;99.90
61201;DHT22;47065;52.898;6.992;2023-08-31T06:53:21;12.60;99.90
61201;DHT22;47065;52.898;6.992;2023-08-31T06:55:47;12.60;99.90
61201;DHT22;47065;52.898;6.992;2023-08-31T06:58:13;12.70;99.90
61201;DHT22;47065;52.898;6.992;2023-08-31T07:00:38;12.80;99.90
61201;DHT22;47065;52.898;6.992;2023-08-31T07:03:04;12.90;99.90
61201;DHT22;47065;52.898;6.992;2023-08-31T07:05:33;12.90;99.90
61201;DHT22;47065;52.898;6.992;2023-08-31T07:08:02;13.00;99.90
61201;DHT22;47065;52.898;6.992;2023-08-31T07:10:28;13.00;99.90
61201;DHT22;47065;52.898;6.992;2023-08-31T07:12:54;13.10;99.90
61201;DHT22;47065;52.898;6.992;2023-08-31T07:15:19;13.10;99.90
61201;DHT22;47065;52.898;6.992;2023-08-31T07:17:45;13.20;99.90
61201;DHT22;47065;52.898;6.992;2023-08-31T07:20:12;13.30;99.90
61201;DHT22;47065;52.898;6.992;2023-08-31T07:22:38;13.40;99.90
61201;DHT22;47065;52.898;6.992;2023-08-31T07:25:04;13.40;99.90
61201;DHT22;47065;52.898;6.992;2023-08-31T07:27:31;13.50;99.90
61201;DHT22;47065;52.898;6.992;2023-08-31T07:29:57;13.60;99.90
61201;DHT22;47065;52.898;6.992;2023-08-31T07:32:22;13.70;99.90
61201;DHT22;47065;52.898;6.992;2023-08-31T07:34:48;13.70;99.90
61201;DHT22;47065;52.898;6.992;2023-08-31T07:37:14;13.80;99.90
61201;DHT22;47065;52.898;6.992;2023-08-31T07:39:39;13.90;99.90
61201;DHT22;47065;52.898;6.992;2023-08-31T07:42:05;13.90;99.90
61201;DHT22;47065;52.898;6.992;2023-08-31T07:44:31;14.10;99.90
61201;DHT22;47065;52.898;6.992;2023-08-31T07:46:57;14.10;99.90
61201;DHT22;47065;52.898;6.992;2023-08-31T07:49:23;14.20;99.90
61201;DHT22;47065;52.898;6.992;2023-08-31T07:51:49;14.30;99.90
61201;DHT22;47065;52.898;6.992;2023-08-31T07:54:24;14.40;99.90
61201;DHT22;47065;52.898;6.992;2023-08-31T07:56:50;14.40;99.90
61201;DHT22;47065;52.898;6.992;2023-08-31T07:59:19;14.50;99.90
61201;DHT22;47065;52.898;6.992;2023-08-31T08:01:45;14.50;99.90
61201;DHT22;47065;52.898;6.992;2023-08-31T08:04:11;14.70;99.90
61201;DHT22;47065;52.898;6.992;2023-08-31T08:06:37;14.80;99.90
61201;DHT22;47065;52.898;6.992;2023-08-31T08:09:03;14.90;99.90
61201;DHT22;47065;52.898;6.992;2023-08-31T08:11:30;15.00;99.90
61201;DHT22;47065;52.898;6.992;2023-08-31T08:13:56;15.00;99.90
61201;DHT22;47065;52.898;6.992;2023-08-31T08:16:22;15.10;99.90
61201;DHT22;47065;52.898;6.992;2023-08-31T08:18:48;15.20;99.90
61201;DHT22;47065;52.898;6.992;2023-08-31T08:21:13;15.30;99.90
61201;DHT22;47065;52.898;6.992;2023-08-31T08:23:39;15.40;99.90
61201;DHT22;47065;52.898;6.992;2023-08-31T08:26:05;15.60;99.90
61201;DHT22;47065;52.898;6.992;2023-08-31T08:28:30;15.70;99.90
61201;DHT22;47065;52.898;6.992;2023-08-31T08:30:56;15.90;99.90
61201;DHT22;47065;52.898;6.992;2023-08-31T08:33:22;16.00;99.90
61201;DHT22;47065;52.898;6.992;2023-08-31T08:35:47;16.20;99.90
61201;DHT22;47065;52.898;6.992;2023-08-31T08:38:13;16.50;99.90
61201;DHT22;47065;52.898;6.992;2023-08-31T08:40:39;17.30;99.90
61201;DHT22;47065;52.898;6.992;2023-08-31T08:43:06;18.40;99.90
61201;DHT22;47065;52.898;6.992;2023-08-31T08:45:37;19.50;99.90
61201;DHT22;47065;52.898;6.992;2023-08-31T08:48:08;20.40;99.90
61201;DHT22;47065;52.898;6.992;2023-08-31T08:50:34;21.10;99.90
61201;DHT22;47065;52.898;6.992;2023-08-31T08:53:04;21.30;99.90
61201;DHT22;47065;52.898;6.992;2023-08-31T08:55:30;21.30;99.90
61201;DHT22;47065;52.898;6.992;2023-08-31T08:57:58;21.50;99.90
61201;DHT22;47065;52.898;6.992;2023-08-31T09:00:24;21.30;99.90
61201;DHT22;47065;52.898;6.992;2023-08-31T09:02:50;20.70;99.90
61201;DHT22;47065;52.898;6.992;2023-08-31T09:05:16;20.80;99.90
61201;DHT22;47065;52.898;6.992;2023-08-31T09:08:08;21.50;99.90
61201;DHT22;47065;52.898;6.992;2023-08-31T09:10:42;22.70;99.90
61201;DHT22;47065;52.898;6.992;2023-08-31T09:13:09;23.70;99.90
61201;DHT22;47065;52.898;6.992;2023-08-31T09:15:39;24.40;99.90
61201;DHT22;47065;52.898;6.992;2023-08-31T09:18:06;25.00;99.90
61201;DHT22;47065;52.898;6.992;2023-08-31T09:20:35;25.70;99.90
61201;DHT22;47065;52.898;6.992;2023-08-31T09:23:09;25.80;97.40
61201;DHT22;47065;52.898;6.992;2023-08-31T09:25:41;25.60;97.30
61201;DHT22;47065;52.898;6.992;2023-08-31T09:28:08;25.60;98.40
61201;DHT22;47065;52.898;6.992;2023-08-31T09:30:37;25.80;97.50
61201;DHT22;47065;52.898;6.992;2023-08-31T09:33:04;26.30;95.00
61201;DHT22;47065;52.898;6.992;2023-08-31T09:35:30;26.20;92.00
61201;DHT22;47065;52.898;6.992;2023-08-31T09:37:56;25.30;90.40
61201;DHT22;47065;52.898;6.992;2023-08-31T09:40:27;24.10;90.30
61201;DHT22;47065;52.898;6.992;2023-08-31T09:42:53;23.20;90.50
61201;DHT22;47065;52.898;6.992;2023-08-31T09:45:26;23.00;90.40
61201;DHT22;47065;52.898;6.992;2023-08-31T09:47:52;23.00;91.00
61201;DHT22;47065;52.898;6.992;2023-08-31T09:50:18;22.90;91.10
61201;DHT22;47065;52.898;6.992;2023-08-31T09:52:45;22.40;91.30
61201;DHT22;47065;52.898;6.992;2023-08-31T09:55:13;21.80;92.50
61201;DHT22;47065;52.898;6.992;2023-08-31T09:57:39;21.40;93.40
61201;DHT22;47065;52.898;6.992;2023-08-31T10:00:05;20.90;94.20
61201;DHT22;47065;52.898;6.992;2023-08-31T10:02:32;20.60;95.10
61201;DHT22;47065;52.898;6.992;2023-08-31T10:04:59;20.50;96.60
61201;DHT22;47065;52.898;6.992;2023-08-31T10:07:25;20.50;97.30
61201;DHT22;47065;52.898;6.992;2023-08-31T10:09:51;20.30;98.90
61201;DHT22;47065;52.898;6.992;2023-08-31T10:12:17;20.20;99.50
61201;DHT22;47065;52.898;6.992;2023-08-31T10:14:44;19.90;99.90
61201;DHT22;47065;52.898;6.992;2023-08-31T10:17:12;19.60;99.90
61201;DHT22;47065;52.898;6.992;2023-08-31T10:19:39;19.30;99.90
61201;DHT22;47065;52.898;6.992;2023-08-31T10:22:06;19.10;99.90
61201;DHT22;47065;52.898;6.992;2023-08-31T10:24:57;18.90;99.90
61201;DHT22;47065;52.898;6.992;2023-08-31T10:27:26;18.70;99.90
61201;DHT22;47065;52.898;6.992;2023-08-31T10:29:52;18.50;99.90
61201;DHT22;47065;52.898;6.992;2023-08-31T10:32:18;18.30;99.90
61201;DHT22;47065;52.898;6.992;2023-08-31T10:35:04;18.30;99.90
61201;DHT22;47065;52.898;6.992;2023-08-31T10:37:30;18.30;99.90
61201;DHT22;47065;52.898;6.992;2023-08-31T10:40:09;18.40;99.90
61201;DHT22;47065;52.898;6.992;2023-08-31T10:42:44;18.50;99.90
61201;DHT22;47065;52.898;6.992;2023-08-31T10:45:10;18.80;99.90
61201;DHT22;47065;52.898;6.992;2023-08-31T10:47:42;18.90;99.90
61201;DHT22;47065;52.898;6.992;2023-08-31T10:50:22;19.10;99.90
61201;DHT22;47065;52.898;6.992;2023-08-31T10:52:48;19.40;99.90
61201;DHT22;47065;52.898;6.992;2023-08-31T10:55:14;19.50;99.90
61201;DHT22;47065;52.898;6.992;2023-08-31T10:57:41;19.70;99.90
61201;DHT22;47065;52.898;6.992;2023-08-31T11:00:08;19.90;99.90
61201;DHT22;47065;52.898;6.992;2023-08-31T11:02:38;20.00;99.90
61201;DHT22;47065;52.898;6.992;2023-08-31T11:05:11;20.30;99.90
61201;DHT22;47065;52.898;6.992;2023-08-31T11:07:38;20.50;99.90
61201;DHT22;47065;52.898;6.992;2023-08-31T11:10:11;20.80;99.90
61201;DHT22;47065;52.898;6.992;2023-08-31T11:12:37;21.00;99.90
61201;DHT22;47065;52.898;6.992;2023-08-31T11:15:03;21.20;99.90
61201;DHT22;47065;52.898;6.992;2023-08-31T11:17:30;21.30;99.90
61201;DHT22;47065;52.898;6.992;2023-08-31T11:19:59;21.50;99.90
61201;DHT22;47065;52.898;6.992;2023-08-31T11:22:25;21.70;99.90
61201;DHT22;47065;52.898;6.992;2023-08-31T11:24:51;21.70;99.90
61201;DHT22;47065;52.898;6.992;2023-08-31T11:27:20;21.60;99.90
61201;DHT22;47065;52.898;6.992;2023-08-31T11:29:46;21.40;99.90
61201;DHT22;47065;52.898;6.992;2023-08-31T11:32:13;21.10;99.90
61201;DHT22;47065;52.898;6.992;2023-08-31T11:34:43;20.80;99.90
61201;DHT22;47065;52.898;6.992;2023-08-31T11:37:10;20.30;99.90
61201;DHT22;47065;52.898;6.992;2023-08-31T11:39:37;19.90;99.90
61201;DHT22;47065;52.898;6.992;2023-08-31T11:42:05;19.60;99.90
61201;DHT22;47065;52.898;6.992;2023-08-31T11:44:31;19.50;99.90
61201;DHT22;47065;52.898;6.992;2023-08-31T11:46:56;19.40;99.90
61201;DHT22;47065;52.898;6.992;2023-08-31T11:49:22;19.30;99.90
61201;DHT22;47065;52.898;6.992;2023-08-31T11:51:49;19.30;99.90
61201;DHT22;47065;52.898;6.992;2023-08-31T11:54:17;19.30;99.90
61201;DHT22;47065;52.898;6.992;2023-08-31T11:56:47;19.50;99.90
61201;DHT22;47065;52.898;6.992;2023-08-31T11:59:17;19.50;99.90
61201;DHT22;47065;52.898;6.992;2023-08-31T12:01:43;19.50;99.90
61201;DHT22;47065;52.898;6.992;2023-08-31T12:04:14;19.70;99.90
61201;DHT22;47065;52.898;6.992;2023-08-31T12:06:40;19.80;99.90
61201;DHT22;47065;52.898;6.992;2023-08-31T12:09:08;19.80;99.90
61201;DHT22;47065;52.898;6.992;2023-08-31T12:11:34;19.90;99.90
61201;DHT22;47065;52.898;6.992;2023-08-31T12:14:03;19.90;99.90
61201;DHT22;47065;52.898;6.992;2023-08-31T12:16:36;19.90;99.90
61201;DHT22;47065;52.898;6.992;2023-08-31T12:19:03;19.80;99.90
61201;DHT22;47065;52.898;6.992;2023-08-31T12:21:30;19.90;99.90
61201;DHT22;47065;52.898;6.992;2023-08-31T12:24:00;19.90;99.90
61201;DHT22;47065;52.898;6.992;2023-08-31T12:26:26;19.90;99.90
61201;DHT22;47065;52.898;6.992;2023-08-31T12:28:52;19.90;99.90
61201;DHT22;47065;52.898;6.992;2023-08-31T12:31:18;19.70;99.90
61201;DHT22;47065;52.898;6.992;2023-08-31T12:33:43;19.50;99.90
61201;DHT22;47065;52.898;6.992;2023-08-31T12:36:09;19.50;99.90
61201;DHT22;47065;52.898;6.992;2023-08-31T12:38:35;19.50;99.90
61201;DHT22;47065;52.898;6.992;2023-08-31T12:41:00;19.50;99.90
61201;DHT22;47065;52.898;6.992;2023-08-31T12:43:28;19.40;99.90
61201;DHT22;47065;52.898;6.992;2023-08-31T12:45:55;19.30;99.90
61201;DHT22;47065;52.898;6.992;2023-08-31T12:48:21;19.20;99.90
61201;DHT22;47065;52.898;6.992;2023-08-31T12:50:47;19.10;99.90
61201;DHT22;47065;52.898;6.992;2023-08-31T12:53:14;19.00;99.90
61201;DHT22;47065;52.898;6.992;2023-08-31T12:55:40;19.00;99.90
61201;DHT22;47065;52.898;6.992;2023-08-31T12:58:05;18.90;99.90
61201;DHT22;47065;52.898;6.992;2023-08-31T13:00:31;19.10;99.90
61201;DHT22;47065;52.898;6.992;2023-08-31T13:02:57;19.10;99.90
61201;DHT22;47065;52.898;6.992;2023-08-31T13:05:22;19.20;99.90
61201;DHT22;47065;52.898;6.992;2023-08-31T13:07:48;19.30;99.90
61201;DHT22;47065;52.898;6.992;2023-08-31T13:10:14;19.40;99.90
61201;DHT22;47065;52.898;6.992;2023-08-31T13:12:40;19.30;99.90
61201;DHT22;47065;52.898;6.992;2023-08-31T13:15:06;19.30;99.90
61201;DHT22;47065;52.898;6.992;2023-08-31T13:17:33;19.10;99.90
61201;DHT22;47065;52.898;6.992;2023-08-31T13:19:59;19.00;99.90
61201;DHT22;47065;52.898;6.992;2023-08-31T13:22:25;18.90;99.90
61201;DHT22;47065;52.898;6.992;2023-08-31T13:24:51;18.80;99.90
61201;DHT22;47065;52.898;6.992;2023-08-31T13:27:17;18.60;99.90
61201;DHT22;47065;52.898;6.992;2023-08-31T13:29:43;18.40;99.90
61201;DHT22;47065;52.898;6.992;2023-08-31T13:32:09;18.10;99.90
61201;DHT22;47065;52.898;6.992;2023-08-31T13:34:35;17.80;99.90
61201;DHT22;47065;52.898;6.992;2023-08-31T13:37:04;17.60;99.90
61201;DHT22;47065;52.898;6.992;2023-08-31T13:39:31;17.30;99.90
61201;DHT22;47065;52.898;6.992;2023-08-31T13:41:56;17.10;99.90
61201;DHT22;47065;52.898;6.992;2023-08-31T13:44:22;17.00;99.90
61201;DHT22;47065;52.898;6.992;2023-08-31T13:46:48;16.80;99.90
61201;DHT22;47065;52.898;6.992;2023-08-31T13:49:15;16.70;99.90
61201;DHT22;47065;52.898;6.992;2023-08-31T13:51:41;16.60;99.90
61201;DHT22;47065;52.898;6.992;2023-08-31T13:54:07;16.50;99.90
61201;DHT22;47065;52.898;6.992;2023-08-31T13:56:33;16.50;99.90
61201;DHT22;47065;52.898;6.992;2023-08-31T13:58:59;16.40;99.90
61201;DHT22;47065;52.898;6.992;2023-08-31T14:01:25;16.40;99.90
61201;DHT22;47065;52.898;6.992;2023-08-31T14:03:52;16.30;99.90
61201;DHT22;47065;52.898;6.992;2023-08-31T14:06:17;16.30;99.90
61201;DHT22;47065;52.898;6.992;2023-08-31T14:08:43;16.20;99.90
61201;DHT22;47065;52.898;6.992;2023-08-31T14:11:09;16.20;99.90
61201;DHT22;47065;52.898;6.992;2023-08-31T14:13:34;16.20;99.90
61201;DHT22;47065;52.898;6.992;2023-08-31T14:16:00;16.20;99.90
61201;DHT22;47065;52.898;6.992;2023-08-31T14:18:26;16.20;99.90
61201;DHT22;47065;52.898;6.992;2023-08-31T14:20:55;16.20;99.90
61201;DHT22;47065;52.898;6.992;2023-08-31T14:23:20;16.10;99.90
61201;DHT22;47065;52.898;6.992;2023-08-31T14:25:46;16.20;99.90
61201;DHT22;47065;52.898;6.992;2023-08-31T14:28:11;16.30;99.90
61201;DHT22;47065;52.898;6.992;2023-08-31T14:30:37;16.40;99.90
61201;DHT22;47065;52.898;6.992;2023-08-31T14:33:04;16.60;99.90
61201;DHT22;47065;52.898;6.992;2023-08-31T14:35:29;16.80;99.90
61201;DHT22;47065;52.898;6.992;2023-08-31T14:37:56;16.90;99.90
61201;DHT22;47065;52.898;6.992;2023-08-31T14:40:22;17.10;99.90
61201;DHT22;47065;52.898;6.992;2023-08-31T14:42:47;17.20;99.90
61201;DHT22;47065;52.898;6.992;2023-08-31T14:45:13;17.30;99.90
61201;DHT22;47065;52.898;6.992;2023-08-31T14:47:38;17.40;99.90
61201;DHT22;47065;52.898;6.992;2023-08-31T14:50:04;17.50;99.90
61201;DHT22;47065;52.898;6.992;2023-08-31T14:52:30;17.70;99.90
61201;DHT22;47065;52.898;6.992;2023-08-31T14:54:56;17.90;99.90
61201;DHT22;47065;52.898;6.992;2023-08-31T14:57:22;17.90;99.90
61201;DHT22;47065;52.898;6.992;2023-08-31T14:59:47;18.10;99.90
61201;DHT22;47065;52.898;6.992;2023-08-31T15:02:13;18.10;99.90
61201;DHT22;47065;52.898;6.992;2023-08-31T15:04:41;18.10;99.90
61201;DHT22;47065;52.898;6.992;2023-08-31T15:07:06;18.10;99.90
61201;DHT22;47065;52.898;6.992;2023-08-31T15:09:32;18.10;99.90
61201;DHT22;47065;52.898;6.992;2023-08-31T15:11:58;18.10;99.90
61201;DHT22;47065;52.898;6.992;2023-08-31T15:14:24;18.00;99.90
61201;DHT22;47065;52.898;6.992;2023-08-31T15:16:49;17.90;99.90
61201;DHT22;47065;52.898;6.992;2023-08-31T15:19:15;17.70;99.90
61201;DHT22;47065;52.898;6.992;2023-08-31T15:21:40;17.40;99.90
61201;DHT22;47065;52.898;6.992;2023-08-31T15:24:06;17.10;99.90
61201;DHT22;47065;52.898;6.992;2023-08-31T15:26:32;16.90;99.90
61201;DHT22;47065;52.898;6.992;2023-08-31T15:28:58;16.70;99.90
61201;DHT22;47065;52.898;6.992;2023-08-31T15:31:24;16.50;99.90
61201;DHT22;47065;52.898;6.992;2023-08-31T15:33:49;16.40;99.90
61201;DHT22;47065;52.898;6.992;2023-08-31T15:36:15;16.40;99.90